createdAt,value
2023-02-15T00:00:33.008Z,3.9
2023-02-15T00:01:41.605Z,3.7
2023-02-15T00:02:49.927Z,3.7
2023-02-15T00:03:58.178Z,3.7
2023-02-15T00:05:06.711Z,2.5
2023-02-15T00:06:15.047Z,2.5
2023-02-15T00:07:23.405Z,2.5
2023-02-15T00:08:31.902Z,3.2
2023-02-15T00:09:40.216Z,3.2
2023-02-15T00:10:48.530Z,3.2
2023-02-15T00:11:57.070Z,3.6
2023-02-15T00:13:05.398Z,3.6
2023-02-15T00:14:13.713Z,3.6
2023-02-15T00:15:22.226Z,3.3
2023-02-15T00:16:30.593Z,3.3
2023-02-15T00:17:38.878Z,3.3
2023-02-15T00:18:47.411Z,2.9
2023-02-15T00:19:55.720Z,2.9
2023-02-15T00:21:04.028Z,2.9
2023-02-15T00:22:12.566Z,3.4
2023-02-15T00:23:20.898Z,3.4
2023-02-15T00:24:29.190Z,3.4
2023-02-15T00:25:37.713Z,3.1
2023-02-15T00:26:46.037Z,3.1
2023-02-15T00:27:54.339Z,3.1
2023-02-15T00:29:02.870Z,2.9
2023-02-15T00:30:11.236Z,2.9
2023-02-15T00:31:19.680Z,2.9
2023-02-15T00:32:28.064Z,2.9
2023-02-15T00:33:36.393Z,2.9
2023-02-15T00:34:44.702Z,2.9
2023-02-15T00:35:53.227Z,3.5
2023-02-15T00:37:01.567Z,3.5
2023-02-15T00:38:09.877Z,3.5
2023-02-15T00:39:18.437Z,4.2
2023-02-15T00:40:26.721Z,4.2
2023-02-15T00:41:35.053Z,4.2
2023-02-15T00:42:43.588Z,5.3
2023-02-15T00:43:51.896Z,5.3
2023-02-15T00:45:00.227Z,5.3
2023-02-15T00:46:08.842Z,4.1
2023-02-15T00:47:17.085Z,4.1
2023-02-15T00:48:25.422Z,4.1
2023-02-15T00:49:33.947Z,4.6
2023-02-15T00:50:42.291Z,4.6
2023-02-15T00:51:50.617Z,4.6
2023-02-15T00:52:59.140Z,4.4
2023-02-15T00:54:07.465Z,4.4
2023-02-15T00:55:15.787Z,4.4
2023-02-15T00:56:24.305Z,4
2023-02-15T00:57:32.626Z,4
2023-02-15T00:58:40.949Z,4
2023-02-15T00:59:49.469Z,3.6
2023-02-15T01:00:57.824Z,3.6
2023-02-15T01:02:06.142Z,3.6
2023-02-15T01:03:14.672Z,3.2
2023-02-15T01:04:23.048Z,3.2
2023-02-15T01:05:31.302Z,3.2
2023-02-15T01:06:39.856Z,3.3
2023-02-15T01:07:48.156Z,3.3
2023-02-15T01:08:56.455Z,3.3
2023-02-15T01:10:04.999Z,3.4
2023-02-15T01:11:13.330Z,3.4
2023-02-15T01:12:21.632Z,3.4
2023-02-15T01:13:30.153Z,4.1
2023-02-15T01:14:38.486Z,4.1
2023-02-15T01:15:46.885Z,4.1
2023-02-15T01:16:55.323Z,3.4
2023-02-15T01:18:03.644Z,3.4
2023-02-15T01:19:11.957Z,3.4
2023-02-15T01:20:20.484Z,3.9
2023-02-15T01:21:28.807Z,3.9
2023-02-15T01:22:37.128Z,3.9
2023-02-15T01:23:45.663Z,3.4
2023-02-15T01:24:53.970Z,3.4
2023-02-15T01:26:02.610Z,3.4
2023-02-15T01:27:10.868Z,3.8
2023-02-15T01:28:19.156Z,3.8
2023-02-15T01:29:27.478Z,3.8
2023-02-15T01:30:36.001Z,4.1
2023-02-15T01:31:44.534Z,4.1
2023-02-15T01:32:52.653Z,4.1
2023-02-15T01:34:01.181Z,4
2023-02-15T01:35:09.498Z,4
2023-02-15T01:36:17.835Z,4
2023-02-15T01:37:26.346Z,3.3
2023-02-15T01:38:34.662Z,3.3
2023-02-15T01:39:42.979Z,3.3
2023-02-15T01:40:51.525Z,3.7
2023-02-15T01:41:59.851Z,3.7
2023-02-15T01:43:08.195Z,3.7
2023-02-15T01:44:16.689Z,4.4
2023-02-15T01:45:24.992Z,4.4
2023-02-15T01:46:33.368Z,4.4
2023-02-15T01:47:41.861Z,3.8
2023-02-15T01:48:50.168Z,3.8
2023-02-15T01:49:58.488Z,3.8
2023-02-15T01:51:07.016Z,4.4
2023-02-15T01:52:15.356Z,4.4
2023-02-15T01:53:23.680Z,4.4
2023-02-15T01:54:32.200Z,5.3
2023-02-15T01:55:40.496Z,5.3
2023-02-15T01:56:48.828Z,5.3
2023-02-15T01:57:57.355Z,5
2023-02-15T01:59:05.695Z,5
2023-02-15T02:00:13.981Z,5
2023-02-15T02:01:22.537Z,5.5
2023-02-15T02:02:30.920Z,5.5
2023-02-15T02:03:39.167Z,5.5
2023-02-15T02:04:47.680Z,5.8
2023-02-15T02:05:55.989Z,5.8
2023-02-15T02:07:04.331Z,5.8
2023-02-15T02:08:12.844Z,7.9
2023-02-15T02:09:21.158Z,7.9
2023-02-15T02:10:29.466Z,7.9
2023-02-15T02:11:37.985Z,4.4
2023-02-15T02:12:46.323Z,4.4
2023-02-15T02:13:54.634Z,4.4
2023-02-15T02:15:03.193Z,4.1
2023-02-15T02:16:11.542Z,4.1
2023-02-15T02:17:19.799Z,4.1
2023-02-15T02:18:28.326Z,4.4
2023-02-15T02:19:36.643Z,4.4
2023-02-15T02:20:44.962Z,4.4
2023-02-15T02:21:53.504Z,5.7
2023-02-15T02:23:01.821Z,5.7
2023-02-15T02:24:10.134Z,5.7
2023-02-15T02:25:18.663Z,4.8
2023-02-15T02:26:26.981Z,4.8
2023-02-15T02:27:35.310Z,4.8
2023-02-15T02:28:43.856Z,7.1
2023-02-15T02:29:52.184Z,7.1
2023-02-15T02:31:00.587Z,7.1
2023-02-15T02:32:09.022Z,5.6
2023-02-15T02:33:17.332Z,5.6
2023-02-15T02:34:25.666Z,5.6
2023-02-15T02:35:34.194Z,6.6
2023-02-15T02:36:42.526Z,6.6
2023-02-15T02:37:50.853Z,6.6
2023-02-15T02:38:59.368Z,6.3
2023-02-15T02:40:07.727Z,6.3
2023-02-15T02:41:16.024Z,6.3
2023-02-15T02:42:24.554Z,6
2023-02-15T02:43:32.862Z,6
2023-02-15T02:44:41.194Z,6
2023-02-15T02:45:49.717Z,6.5
2023-02-15T02:46:58.063Z,6.5
2023-02-15T02:48:06.355Z,6.5
2023-02-15T02:49:14.876Z,6.7
2023-02-15T02:50:23.199Z,6.7
2023-02-15T02:51:31.507Z,6.7
2023-02-15T02:52:40.047Z,6.5
2023-02-15T02:53:48.367Z,6.5
2023-02-15T02:54:56.680Z,6.5
2023-02-15T02:56:05.208Z,6
2023-02-15T02:57:13.541Z,6
2023-02-15T02:58:21.855Z,6
2023-02-15T02:59:30.374Z,7.1
2023-02-15T03:00:38.696Z,7.1
2023-02-15T03:01:47.080Z,7.1
2023-02-15T03:02:55.610Z,5.6
2023-02-15T03:04:03.876Z,5.6
2023-02-15T03:05:12.199Z,5.6
2023-02-15T03:06:20.715Z,5.5
2023-02-15T03:07:29.056Z,5.5
2023-02-15T03:08:37.369Z,5.5
2023-02-15T03:09:45.897Z,6.3
2023-02-15T03:10:54.225Z,6.3
2023-02-15T03:12:02.556Z,6.3
2023-02-15T03:13:11.094Z,6.7
2023-02-15T03:14:19.413Z,6.7
2023-02-15T03:15:27.738Z,6.7
2023-02-15T03:16:36.307Z,7
2023-02-15T03:17:44.595Z,7
2023-02-15T03:18:52.937Z,7
2023-02-15T03:20:01.429Z,6.6
2023-02-15T03:21:09.746Z,6.6
2023-02-15T03:22:18.067Z,6.6
2023-02-15T03:23:26.621Z,7.1
2023-02-15T03:24:34.932Z,7.1
2023-02-15T03:25:43.250Z,7.1
2023-02-15T03:26:51.798Z,7.4
2023-02-15T03:28:00.131Z,7.4
2023-02-15T03:29:08.455Z,7.4
2023-02-15T03:30:17.009Z,9.7
2023-02-15T03:31:25.386Z,9.7
2023-02-15T03:32:33.601Z,9.7
2023-02-15T03:33:42.125Z,9
2023-02-15T03:34:50.466Z,9
2023-02-15T03:35:58.833Z,9
2023-02-15T03:37:08.260Z,9
2023-02-15T03:38:15.611Z,9
2023-02-15T03:39:23.935Z,9
2023-02-15T03:40:32.460Z,9.7
2023-02-15T03:41:40.790Z,9.7
2023-02-15T03:42:49.124Z,9.7
2023-02-15T03:43:57.668Z,9.7
2023-02-15T03:45:05.969Z,9.7
2023-02-15T03:46:14.310Z,9.7
2023-02-15T03:47:22.819Z,8.5
2023-02-15T03:48:31.160Z,8.5
2023-02-15T03:49:39.478Z,8.5
2023-02-15T03:50:48.025Z,7.8
2023-02-15T03:51:56.331Z,7.8
2023-02-15T03:53:04.656Z,7.8
2023-02-15T03:54:13.200Z,9.2
2023-02-15T03:55:21.520Z,9.2
2023-02-15T03:56:29.835Z,9.2
2023-02-15T03:57:38.364Z,8.6
2023-02-15T03:58:46.705Z,8.6
2023-02-15T03:59:55.038Z,8.6
2023-02-15T04:01:03.608Z,9.1
2023-02-15T04:02:11.892Z,9.1
2023-02-15T04:03:20.292Z,9.1
2023-02-15T04:04:28.744Z,10.1
2023-02-15T04:05:37.066Z,10.1
2023-02-15T04:06:45.418Z,10.1
2023-02-15T04:07:53.933Z,10.4
2023-02-15T04:09:02.253Z,10.4
2023-02-15T04:10:10.591Z,10.4
2023-02-15T04:11:19.087Z,9.2
2023-02-15T04:12:27.413Z,9.2
2023-02-15T04:13:35.726Z,9.2
2023-02-15T04:14:44.250Z,8.4
2023-02-15T04:15:52.572Z,8.4
2023-02-15T04:17:00.904Z,8.4
2023-02-15T04:18:09.430Z,7
2023-02-15T04:19:17.764Z,7
2023-02-15T04:20:26.072Z,7
2023-02-15T04:21:34.603Z,6.7
2023-02-15T04:22:42.941Z,6.7
2023-02-15T04:23:51.254Z,6.7
2023-02-15T04:24:59.780Z,6.8
2023-02-15T04:26:08.108Z,6.8
2023-02-15T04:27:17.781Z,6.8
2023-02-15T04:28:24.949Z,5.2
2023-02-15T04:29:33.337Z,5.2
2023-02-15T04:30:41.658Z,5.2
2023-02-15T04:31:50.326Z,4.9
2023-02-15T04:32:58.474Z,4.9
2023-02-15T04:34:06.810Z,4.9
2023-02-15T04:35:15.348Z,3.2
2023-02-15T04:36:23.666Z,3.2
2023-02-15T04:37:31.987Z,3.2
2023-02-15T04:38:40.545Z,3.6
2023-02-15T04:39:48.831Z,3.6
2023-02-15T04:40:57.166Z,3.6
2023-02-15T04:42:05.688Z,4.1
2023-02-15T04:43:14.008Z,4.1
2023-02-15T04:44:22.341Z,4.1
2023-02-15T04:45:30.945Z,2.1
2023-02-15T04:46:39.233Z,2.1
2023-02-15T04:47:47.550Z,2.1
2023-02-15T04:48:56.084Z,2.2
2023-02-15T04:50:04.418Z,2.2
2023-02-15T04:51:12.751Z,2.2
2023-02-15T04:52:21.285Z,2.2
2023-02-15T04:53:29.606Z,2.2
2023-02-15T04:54:37.965Z,2.2
2023-02-15T04:55:46.478Z,3
2023-02-15T04:56:54.834Z,3
2023-02-15T04:58:03.165Z,3
2023-02-15T04:59:11.722Z,3
2023-02-15T05:00:20.030Z,3
2023-02-15T05:01:28.464Z,3
2023-02-15T05:02:36.891Z,2.9
2023-02-15T05:03:45.221Z,2.9
2023-02-15T05:04:53.544Z,2.9
2023-02-15T05:06:02.322Z,4.4
2023-02-15T05:07:10.405Z,4.4
2023-02-15T05:08:18.742Z,4.4
2023-02-15T05:09:27.274Z,4.6
2023-02-15T05:10:35.605Z,4.6
2023-02-15T05:11:43.908Z,4.6
2023-02-15T05:12:52.443Z,5.6
2023-02-15T05:14:00.760Z,5.6
2023-02-15T05:15:09.094Z,5.6
2023-02-15T05:16:17.679Z,4.8
2023-02-15T05:17:25.965Z,4.8
2023-02-15T05:18:34.310Z,4.8
2023-02-15T05:19:42.838Z,4
2023-02-15T05:20:51.160Z,4
2023-02-15T05:21:59.477Z,4
2023-02-15T05:23:07.994Z,25.9
2023-02-15T05:24:16.325Z,25.9
2023-02-15T05:25:24.655Z,25.9
2023-02-15T05:26:33.214Z,21.200001
2023-02-15T05:27:41.529Z,21.200001
2023-02-15T05:28:49.858Z,21.200001
2023-02-15T05:29:58.532Z,17.1
2023-02-15T05:31:06.927Z,17.1
2023-02-15T05:32:15.267Z,17.1
2023-02-15T05:33:23.584Z,26.9
2023-02-15T05:34:31.930Z,26.9
2023-02-15T05:35:40.255Z,26.9
2023-02-15T05:36:48.777Z,23.9
2023-02-15T05:37:57.102Z,23.9
2023-02-15T05:39:05.450Z,23.9
2023-02-15T05:40:14.000Z,27
2023-02-15T05:41:22.339Z,27
2023-02-15T05:42:30.684Z,27
2023-02-15T05:43:39.211Z,34.200001
2023-02-15T05:44:47.533Z,34.200001
2023-02-15T05:45:55.898Z,34.200001
2023-02-15T05:47:04.408Z,30.6
2023-02-15T05:48:12.727Z,30.6
2023-02-15T05:49:21.058Z,30.6
2023-02-15T05:50:29.605Z,34.299999
2023-02-15T05:51:37.923Z,34.299999
2023-02-15T05:52:46.242Z,34.299999
2023-02-15T05:53:54.787Z,35
2023-02-15T05:55:03.105Z,35
2023-02-15T05:56:11.467Z,35
2023-02-15T05:57:20.118Z,32.200001
2023-02-15T05:58:28.487Z,32.200001
2023-02-15T05:59:36.848Z,32.200001
2023-02-15T06:00:45.408Z,19.4
2023-02-15T06:01:53.754Z,19.4
2023-02-15T06:03:02.092Z,19.4
2023-02-15T06:04:10.655Z,17.9
2023-02-15T06:05:18.983Z,17.9
2023-02-15T06:06:27.320Z,17.9
2023-02-15T06:07:35.879Z,13
2023-02-15T06:08:44.214Z,13
2023-02-15T06:09:52.533Z,13
2023-02-15T06:11:01.062Z,14.8
2023-02-15T06:12:09.389Z,14.8
2023-02-15T06:13:17.714Z,14.8
2023-02-15T06:14:26.266Z,11.2
2023-02-15T06:15:34.576Z,11.2
2023-02-15T06:16:42.905Z,11.2
2023-02-15T06:17:51.476Z,9.1
2023-02-15T06:18:59.803Z,9.1
2023-02-15T06:20:08.125Z,9.1
2023-02-15T06:21:16.649Z,6.4
2023-02-15T06:22:24.964Z,6.4
2023-02-15T06:23:33.311Z,6.4
2023-02-15T06:24:41.843Z,8.6
2023-02-15T06:25:50.155Z,8.6
2023-02-15T06:26:58.508Z,8.6
2023-02-15T06:28:07.039Z,10.3
2023-02-15T06:29:15.379Z,10.3
2023-02-15T06:30:23.773Z,10.3
2023-02-15T06:31:32.364Z,6.9
2023-02-15T06:32:40.605Z,6.9
2023-02-15T06:33:48.953Z,6.9
2023-02-15T06:34:57.498Z,8.9
2023-02-15T06:36:05.838Z,8.9
2023-02-15T06:37:14.156Z,8.9
2023-02-15T06:38:22.681Z,9.4
2023-02-15T06:39:31.027Z,9.4
2023-02-15T06:40:39.353Z,9.4
2023-02-15T06:41:47.894Z,9.2
2023-02-15T06:42:56.216Z,9.2
2023-02-15T06:44:04.546Z,9.2
2023-02-15T06:45:13.077Z,8.8
2023-02-15T06:46:21.461Z,8.8
2023-02-15T06:47:29.730Z,8.8
2023-02-15T06:48:38.252Z,10.6
2023-02-15T06:49:46.576Z,10.6
2023-02-15T06:50:54.904Z,10.6
2023-02-15T06:52:03.443Z,11.2
2023-02-15T06:53:11.770Z,11.2
2023-02-15T06:54:20.081Z,11.2
2023-02-15T06:55:28.607Z,10
2023-02-15T06:56:36.954Z,10
2023-02-15T06:57:45.272Z,10
2023-02-15T06:58:53.860Z,9.7
2023-02-15T07:00:02.170Z,9.7
2023-02-15T07:01:10.579Z,9.7
2023-02-15T07:02:19.058Z,11.8
2023-02-15T07:03:27.366Z,11.8
2023-02-15T07:04:35.735Z,11.8
2023-02-15T07:05:44.433Z,10.6
2023-02-15T07:06:54.158Z,10.6
2023-02-15T07:08:01.131Z,10.6
2023-02-15T07:09:09.692Z,9.9
2023-02-15T07:10:18.007Z,9.9
2023-02-15T07:11:26.329Z,9.9
2023-02-15T07:12:34.849Z,9
2023-02-15T07:13:43.192Z,9
2023-02-15T07:14:51.518Z,9
2023-02-15T07:16:00.351Z,10.5
2023-02-15T07:17:14.794Z,10.5
2023-02-15T07:18:16.778Z,10.5
2023-02-15T07:19:25.311Z,8.7
2023-02-15T07:20:33.642Z,8.7
2023-02-15T07:21:42.006Z,8.7
2023-02-15T07:22:50.556Z,10.6
2023-02-15T07:23:58.890Z,10.6
2023-02-15T07:25:07.195Z,10.6
2023-02-15T07:26:15.746Z,9
2023-02-15T07:27:24.104Z,9
2023-02-15T07:28:32.461Z,9
2023-02-15T07:29:40.996Z,10.2
2023-02-15T07:30:49.380Z,10.2
2023-02-15T07:31:57.706Z,10.2
2023-02-15T07:33:06.213Z,10.3
2023-02-15T07:34:14.599Z,10.3
2023-02-15T07:35:22.888Z,10.3
2023-02-15T07:36:31.470Z,11.9
2023-02-15T07:37:39.794Z,11.9
2023-02-15T07:38:48.131Z,11.9
2023-02-15T07:39:56.677Z,8.6
2023-02-15T07:41:05.048Z,8.6
2023-02-15T07:42:13.363Z,8.6
2023-02-15T07:43:21.884Z,8.7
2023-02-15T07:44:30.218Z,8.7
2023-02-15T07:45:38.537Z,8.7
2023-02-15T07:46:47.161Z,8.5
2023-02-15T07:47:55.444Z,8.5
2023-02-15T07:49:03.749Z,8.5
2023-02-15T07:50:12.341Z,8.9
2023-02-15T07:51:20.645Z,8.9
2023-02-15T07:52:29.011Z,8.9
2023-02-15T07:53:37.541Z,8.8
2023-02-15T07:54:45.885Z,8.8
2023-02-15T07:55:54.211Z,8.8
2023-02-15T07:57:02.780Z,10.1
2023-02-15T07:58:11.100Z,10.1
2023-02-15T07:59:19.431Z,10.1
2023-02-15T08:00:27.981Z,8.2
2023-02-15T08:01:36.329Z,8.2
2023-02-15T08:02:44.662Z,8.2
2023-02-15T08:03:53.268Z,8.9
2023-02-15T08:05:01.856Z,8.9
2023-02-15T08:06:10.295Z,8.9
2023-02-15T08:07:18.742Z,8.7
2023-02-15T08:08:27.078Z,8.7
2023-02-15T08:09:35.445Z,8.7
2023-02-15T08:10:43.977Z,8.3
2023-02-15T08:11:52.301Z,8.3
2023-02-15T08:13:00.634Z,8.3
2023-02-15T08:14:09.191Z,10.4
2023-02-15T08:15:17.515Z,10.4
2023-02-15T08:16:25.923Z,10.4
2023-02-15T08:17:34.404Z,9.6
2023-02-15T08:18:42.749Z,9.6
2023-02-15T08:19:51.107Z,9.6
2023-02-15T08:20:59.662Z,8.9
2023-02-15T08:22:08.029Z,8.9
2023-02-15T08:23:16.480Z,8.9
2023-02-15T08:24:25.036Z,9.2
2023-02-15T08:25:33.380Z,9.2
2023-02-15T08:26:42.407Z,9.2
2023-02-15T08:27:50.255Z,12.1
2023-02-15T08:28:58.593Z,12.1
2023-02-15T08:30:06.988Z,12.1
2023-02-15T08:31:15.606Z,10.1
2023-02-15T08:32:23.861Z,10.1
2023-02-15T08:33:32.161Z,10.1
2023-02-15T08:34:40.698Z,9.9
2023-02-15T08:35:49.007Z,9.9
2023-02-15T08:36:57.363Z,9.9
2023-02-15T08:38:05.947Z,7.8
2023-02-15T08:39:14.349Z,7.8
2023-02-15T08:40:22.674Z,7.8
2023-02-15T08:41:31.238Z,5.8
2023-02-15T08:42:39.577Z,5.8
2023-02-15T08:43:47.932Z,5.8
2023-02-15T08:44:56.481Z,5.5
2023-02-15T08:46:04.884Z,5.5
2023-02-15T08:47:13.158Z,5.5
2023-02-15T08:48:21.702Z,6.9
2023-02-15T08:49:30.136Z,6.9
2023-02-15T08:50:38.434Z,6.9
2023-02-15T08:51:47.000Z,8.1
2023-02-15T08:52:55.362Z,8.1
2023-02-15T08:54:03.811Z,8.1
2023-02-15T08:55:12.290Z,5.1
2023-02-15T08:56:20.580Z,5.1
2023-02-15T08:57:28.932Z,5.1
2023-02-15T08:58:37.459Z,4.9
2023-02-15T08:59:45.807Z,4.9
2023-02-15T09:00:54.180Z,4.9
2023-02-15T09:02:02.724Z,4.9
2023-02-15T09:03:11.106Z,4.9
2023-02-15T09:04:19.399Z,4.9
2023-02-15T09:05:27.953Z,5.1
2023-02-15T09:06:36.305Z,5.1
2023-02-15T09:07:44.628Z,5.1
2023-02-15T09:08:53.167Z,4.6
2023-02-15T09:10:01.518Z,4.6
2023-02-15T09:11:09.840Z,4.6
2023-02-15T09:12:18.402Z,4
2023-02-15T09:13:26.712Z,4
2023-02-15T09:14:35.056Z,4
2023-02-15T09:15:43.597Z,4.4
2023-02-15T09:16:52.063Z,4.4
2023-02-15T09:18:00.260Z,4.4
2023-02-15T09:19:08.801Z,4.1
2023-02-15T09:20:17.153Z,4.1
2023-02-15T09:21:25.456Z,4.1
2023-02-15T09:22:34.005Z,4
2023-02-15T09:23:42.323Z,4
2023-02-15T09:24:50.661Z,4
2023-02-15T09:25:59.240Z,4.7
2023-02-15T09:27:07.521Z,4.7
2023-02-15T09:28:15.853Z,4.7
2023-02-15T09:29:24.404Z,5.2
2023-02-15T09:30:32.880Z,5.2
2023-02-15T09:31:41.120Z,5.2
2023-02-15T09:32:49.623Z,4.5
2023-02-15T09:33:57.983Z,4.5
2023-02-15T09:35:06.342Z,4.5
2023-02-15T09:36:14.862Z,3.5
2023-02-15T09:37:23.198Z,3.5
2023-02-15T09:38:31.522Z,3.5
2023-02-15T09:39:40.094Z,3.2
2023-02-15T09:40:48.427Z,3.2
2023-02-15T09:41:56.827Z,3.2
2023-02-15T09:43:05.296Z,3.4
2023-02-15T09:44:13.610Z,3.4
2023-02-15T09:45:21.980Z,3.4
2023-02-15T09:46:30.509Z,4.5
2023-02-15T09:47:38.844Z,4.5
2023-02-15T09:48:47.151Z,4.5
2023-02-15T09:49:55.698Z,3.5
2023-02-15T09:51:04.279Z,3.5
2023-02-15T09:52:12.375Z,3.5
2023-02-15T09:53:20.916Z,2.7
2023-02-15T09:54:29.247Z,2.7
2023-02-15T09:55:37.577Z,2.7
2023-02-15T09:56:46.197Z,3.2
2023-02-15T09:57:54.486Z,3.2
2023-02-15T09:59:02.874Z,3.2
2023-02-15T10:00:11.382Z,2.2
2023-02-15T10:01:19.750Z,2.2
2023-02-15T10:02:28.057Z,2.2
2023-02-15T10:03:36.588Z,2.8
2023-02-15T10:04:45.365Z,2.8
2023-02-15T10:05:53.253Z,2.8
2023-02-15T10:07:01.774Z,3.3
2023-02-15T10:08:10.096Z,3.3
2023-02-15T10:09:18.453Z,3.3
2023-02-15T10:10:26.989Z,4.6
2023-02-15T10:11:35.332Z,4.6
2023-02-15T10:12:43.676Z,4.6
2023-02-15T10:13:52.236Z,2.5
2023-02-15T10:15:00.527Z,2.5
2023-02-15T10:16:08.874Z,2.5
2023-02-15T10:17:17.414Z,2.3
2023-02-15T10:18:25.734Z,2.3
2023-02-15T10:19:34.061Z,2.3
2023-02-15T10:20:42.622Z,2.4
2023-02-15T10:21:50.937Z,2.4
2023-02-15T10:22:59.260Z,2.4
2023-02-15T10:24:07.793Z,1.9
2023-02-15T10:25:16.131Z,1.9
2023-02-15T10:26:24.484Z,1.9
2023-02-15T10:27:33.027Z,2.5
2023-02-15T10:28:41.358Z,2.5
2023-02-15T10:29:49.885Z,2.5
2023-02-15T10:30:58.293Z,2.6
2023-02-15T10:32:06.658Z,2.6
2023-02-15T10:33:14.862Z,2.6
2023-02-15T10:34:23.413Z,3.6
2023-02-15T10:35:31.742Z,3.6
2023-02-15T10:36:40.097Z,3.6
2023-02-15T10:37:48.629Z,2.5
2023-02-15T10:38:56.958Z,2.5
2023-02-15T10:40:05.275Z,2.5
2023-02-15T10:41:13.858Z,2.3
2023-02-15T10:42:22.196Z,2.3
2023-02-15T10:43:30.554Z,2.3
2023-02-15T10:44:39.074Z,2.3
2023-02-15T10:45:47.439Z,2.3
2023-02-15T10:46:55.703Z,2.3
2023-02-15T10:48:04.247Z,2.5
2023-02-15T10:49:12.568Z,2.5
2023-02-15T10:50:20.952Z,2.5
2023-02-15T10:51:29.441Z,2.2
2023-02-15T10:52:38.020Z,2.2
2023-02-15T10:53:46.098Z,2.2
2023-02-15T10:54:54.633Z,3.1
2023-02-15T10:56:02.990Z,3.1
2023-02-15T10:57:11.350Z,3.1
2023-02-15T10:58:19.925Z,2.8
2023-02-15T10:59:28.268Z,2.8
2023-02-15T11:00:36.626Z,2.8
2023-02-15T11:01:45.220Z,2.6
2023-02-15T11:02:53.485Z,2.6
2023-02-15T11:04:01.806Z,2.6
2023-02-15T11:05:10.434Z,3.8
2023-02-15T11:06:18.695Z,3.8
2023-02-15T11:07:27.012Z,3.8
2023-02-15T11:08:35.559Z,8.4
2023-02-15T11:09:43.861Z,8.4
2023-02-15T11:10:52.193Z,8.4
2023-02-15T11:12:00.757Z,5.2
2023-02-15T11:13:09.052Z,5.2
2023-02-15T11:14:17.389Z,5.2
2023-02-15T11:15:25.924Z,5
2023-02-15T11:16:34.263Z,5
2023-02-15T11:17:42.620Z,5
2023-02-15T11:18:51.149Z,2.9
2023-02-15T11:19:59.506Z,2.9
2023-02-15T11:21:08.389Z,2.9
2023-02-15T11:22:17.965Z,3.8
2023-02-15T11:23:25.280Z,3.8
2023-02-15T11:24:33.604Z,3.8
2023-02-15T11:25:42.145Z,4.8
2023-02-15T11:26:50.467Z,4.8
2023-02-15T11:27:58.847Z,4.8
2023-02-15T11:29:07.364Z,4.8
2023-02-15T11:30:15.792Z,4.8
2023-02-15T11:31:24.201Z,4.8
2023-02-15T11:32:32.609Z,4.2
2023-02-15T11:33:40.965Z,4.2
2023-02-15T11:34:49.268Z,4.2
2023-02-15T11:35:57.804Z,4.7
2023-02-15T11:37:06.127Z,4.7
2023-02-15T11:38:14.452Z,4.7
2023-02-15T11:39:23.006Z,5.1
2023-02-15T11:40:31.350Z,5.1
2023-02-15T11:41:39.687Z,5.1
2023-02-15T11:42:48.240Z,4.4
2023-02-15T11:43:56.559Z,4.4
2023-02-15T11:45:04.894Z,4.4
2023-02-15T11:46:13.516Z,5.6
2023-02-15T11:47:21.771Z,5.6
2023-02-15T11:48:30.107Z,5.6
2023-02-15T11:49:38.698Z,6.7
2023-02-15T11:50:47.011Z,6.7
2023-02-15T11:51:55.335Z,6.7
2023-02-15T11:53:03.863Z,4.7
2023-02-15T11:54:12.193Z,4.7
2023-02-15T11:55:20.529Z,4.7
2023-02-15T11:56:29.084Z,9.6
2023-02-15T11:57:37.411Z,9.6
2023-02-15T11:58:45.746Z,9.6
2023-02-15T11:59:54.303Z,7.6
2023-02-15T12:01:02.934Z,7.6
2023-02-15T12:02:10.962Z,7.6
2023-02-15T12:03:19.840Z,5.6
2023-02-15T12:04:27.830Z,5.6
2023-02-15T12:05:36.182Z,5.6
2023-02-15T12:06:44.715Z,4.8
2023-02-15T12:07:53.033Z,4.8
2023-02-15T12:09:01.370Z,4.8
2023-02-15T12:10:09.930Z,3.7
2023-02-15T12:11:18.266Z,3.7
2023-02-15T12:12:26.591Z,3.7
2023-02-15T12:13:35.142Z,4.7
2023-02-15T12:14:43.470Z,4.7
2023-02-15T12:15:51.861Z,4.7
2023-02-15T12:17:00.387Z,5.3
2023-02-15T12:18:08.714Z,5.3
2023-02-15T12:19:17.024Z,5.3
2023-02-15T12:20:25.557Z,3.3
2023-02-15T12:21:33.925Z,3.3
2023-02-15T12:22:42.249Z,3.3
2023-02-15T12:23:50.768Z,4
2023-02-15T12:24:59.089Z,4
2023-02-15T12:26:07.413Z,4
2023-02-15T12:27:15.955Z,3.6
2023-02-15T12:28:24.287Z,3.6
2023-02-15T12:29:32.617Z,3.6
2023-02-15T12:30:41.186Z,3
2023-02-15T12:31:49.593Z,3
2023-02-15T12:32:57.866Z,3
2023-02-15T12:34:06.408Z,4.1
2023-02-15T12:35:14.744Z,4.1
2023-02-15T12:36:23.081Z,4.1
2023-02-15T12:37:31.628Z,4.7
2023-02-15T12:38:39.941Z,4.7
2023-02-15T12:39:48.254Z,4.7
2023-02-15T12:40:56.821Z,4.8
2023-02-15T12:42:05.174Z,4.8
2023-02-15T12:43:13.493Z,4.8
2023-02-15T12:44:22.039Z,5.6
2023-02-15T12:45:30.416Z,5.6
2023-02-15T12:46:38.794Z,5.6
2023-02-15T12:47:47.276Z,6
2023-02-15T12:48:55.625Z,6
2023-02-15T12:50:03.986Z,6
2023-02-15T12:51:12.578Z,6.3
2023-02-15T12:52:20.871Z,6.3
2023-02-15T12:53:29.215Z,6.3
2023-02-15T12:54:37.732Z,6.9
2023-02-15T12:55:46.073Z,6.9
2023-02-15T12:56:55.339Z,6.9
2023-02-15T12:58:03.231Z,7.4
2023-02-15T12:59:11.542Z,7.4
2023-02-15T13:00:19.874Z,7.4
2023-02-15T13:01:28.496Z,7
2023-02-15T13:02:36.743Z,7
2023-02-15T13:03:45.091Z,7
2023-02-15T13:04:53.623Z,7.3
2023-02-15T13:06:01.959Z,7.3
2023-02-15T13:07:10.313Z,7.3
2023-02-15T13:08:18.846Z,7.4
2023-02-15T13:09:27.258Z,7.4
2023-02-15T13:10:35.551Z,7.4
2023-02-15T13:11:44.081Z,8.2
2023-02-15T13:12:52.436Z,8.2
2023-02-15T13:14:00.792Z,8.2
2023-02-15T13:15:09.333Z,7.9
2023-02-15T13:16:17.680Z,7.9
2023-02-15T13:17:25.986Z,7.9
2023-02-15T13:18:34.530Z,9.8
2023-02-15T13:19:42.883Z,9.8
2023-02-15T13:20:51.184Z,9.8
2023-02-15T13:21:59.734Z,9.1
2023-02-15T13:23:08.065Z,9.1
2023-02-15T13:24:16.432Z,9.1
2023-02-15T13:25:24.972Z,10.1
2023-02-15T13:26:33.275Z,10.1
2023-02-15T13:27:41.633Z,10.1
2023-02-15T13:28:50.166Z,10.5
2023-02-15T13:29:58.506Z,10.5
2023-02-15T13:31:06.837Z,10.5
2023-02-15T13:32:15.451Z,11
2023-02-15T13:33:23.708Z,11
2023-02-15T13:34:32.036Z,11
2023-02-15T13:35:40.573Z,11.2
2023-02-15T13:36:48.887Z,11.2
2023-02-15T13:37:57.240Z,11.2
2023-02-15T13:39:05.777Z,12.4
2023-02-15T13:40:14.102Z,12.4
2023-02-15T13:41:22.454Z,12.4
2023-02-15T13:42:30.988Z,10.3
2023-02-15T13:43:39.345Z,10.3
2023-02-15T13:44:47.668Z,10.3
2023-02-15T13:45:56.265Z,10.7
2023-02-15T13:47:04.536Z,10.7
2023-02-15T13:48:12.875Z,10.7
2023-02-15T13:49:21.460Z,10
2023-02-15T13:50:29.804Z,10
2023-02-15T13:51:38.127Z,10
2023-02-15T13:52:46.666Z,10.9
2023-02-15T13:53:54.979Z,10.9
2023-02-15T13:55:03.321Z,10.9
2023-02-15T13:56:11.877Z,10.1
2023-02-15T13:57:20.234Z,10.1
2023-02-15T13:58:28.585Z,10.1
2023-02-15T13:59:37.100Z,10
2023-02-15T14:00:45.512Z,10
2023-02-15T14:01:53.763Z,10
2023-02-15T14:03:02.310Z,10.3
2023-02-15T14:04:10.676Z,10.3
2023-02-15T14:05:18.965Z,10.3
2023-02-15T14:06:27.518Z,8.5
2023-02-15T14:07:35.876Z,8.5
2023-02-15T14:08:44.192Z,8.5
2023-02-15T14:09:52.729Z,24.700001
2023-02-15T14:11:01.548Z,24.700001
2023-02-15T14:12:09.392Z,24.700001
2023-02-15T14:13:18.005Z,31.6
2023-02-15T14:14:26.261Z,31.6
2023-02-15T14:15:34.580Z,31.6
2023-02-15T14:16:43.209Z,64.800003
2023-02-15T14:17:51.489Z,64.800003
2023-02-15T14:18:59.832Z,64.800003
2023-02-15T14:20:08.360Z,19.9
2023-02-15T14:21:16.674Z,19.9
2023-02-15T14:22:25.020Z,19.9
2023-02-15T14:23:33.570Z,43.700001
2023-02-15T14:24:41.962Z,43.700001
2023-02-15T14:25:50.238Z,43.700001
2023-02-15T14:26:58.797Z,26.1
2023-02-15T14:28:07.128Z,26.1
2023-02-15T14:29:16.102Z,26.1
2023-02-15T14:30:24.171Z,17
2023-02-15T15:03:44.065Z,0
2023-02-15T15:04:52.316Z,0
2023-02-15T15:06:02.287Z,0
2023-02-15T15:07:09.201Z,22
2023-02-15T15:08:17.550Z,22
2023-02-15T15:09:25.891Z,22
2023-02-15T15:10:34.412Z,19.200001
2023-02-15T15:11:44.418Z,19.200001
2023-02-15T15:12:51.126Z,19.200001
2023-02-15T15:13:59.661Z,18.299999
2023-02-15T15:15:07.996Z,18.299999
2023-02-15T15:16:16.378Z,18.299999
2023-02-15T15:17:24.871Z,17.1
2023-02-15T15:18:33.214Z,17.1
2023-02-15T15:19:51.377Z,17.1
2023-02-15T15:20:51.466Z,15.1
2023-02-15T15:21:58.493Z,15.1
2023-02-15T15:23:06.816Z,15.1
2023-02-15T15:24:15.373Z,13.2
2023-02-15T15:25:23.714Z,13.2
2023-02-15T15:26:32.081Z,13.2
2023-02-15T15:27:40.580Z,13
2023-02-15T15:28:48.925Z,13
2023-02-15T15:29:57.250Z,13
2023-02-15T15:31:05.917Z,13
2023-02-15T15:32:14.202Z,13
2023-02-15T15:33:22.444Z,13
2023-02-15T15:34:31.022Z,12.4
2023-02-15T15:35:39.364Z,12.4
2023-02-15T15:36:47.661Z,12.4
2023-02-15T15:37:56.200Z,14.5
2023-02-15T15:39:04.539Z,14.5
2023-02-15T15:40:12.880Z,14.5
2023-02-15T15:41:21.418Z,14.5
2023-02-15T15:42:29.785Z,14.5
2023-02-15T15:43:38.099Z,14.5
2023-02-15T15:44:46.640Z,17.299999
2023-02-15T15:45:55.028Z,17.299999
2023-02-15T15:47:03.327Z,17.299999
2023-02-15T15:48:11.849Z,30.5
2023-02-15T15:49:20.202Z,30.5
2023-02-15T15:50:28.537Z,30.5
2023-02-15T15:51:37.097Z,27.6
2023-02-15T15:52:45.406Z,27.6
2023-02-15T15:53:53.745Z,27.6
2023-02-15T15:55:02.277Z,14.7
2023-02-15T15:56:10.601Z,14.7
2023-02-15T15:57:18.922Z,14.7
2023-02-15T15:58:27.484Z,16.700001
2023-02-15T15:59:35.845Z,16.700001
2023-02-15T16:00:44.159Z,16.700001
2023-02-15T16:01:52.814Z,15.8
2023-02-15T16:03:01.169Z,15.8
2023-02-15T16:04:09.391Z,15.8
2023-02-15T16:05:17.936Z,13.5
2023-02-15T16:06:26.273Z,13.5